sensor_id;sensor_type;location;lat;lon;timestamp;pressure;altitude;pressure_sealevel;temperature;humidity
8637;BME280;4356;49.068;8.658;2023-05-01T00:00:51;99873.47;;;20.05;40.74
8637;BME280;4356;49.068;8.658;2023-05-01T00:03:17;99846.38;;;19.92;40.85
8637;BME280;4356;49.068;8.658;2023-05-01T00:05:44;99862.38;;;20.00;40.78
8637;BME280;4356;49.068;8.658;2023-05-01T00:08:10;99865.97;;;20.01;40.76
8637;BME280;4356;49.068;8.658;2023-05-01T00:10:36;99860.75;;;19.99;40.61
8637;BME280;4356;49.068;8.658;2023-05-01T00:13:02;99863.47;;;19.99;41.08
8637;BME280;4356;49.068;8.658;2023-05-01T00:15:28;99846.81;;;19.89;40.91
8637;BME280;4356;49.068;8.658;2023-05-01T00:17:54;99837.47;;;19.85;40.87
8637;BME280;4356;49.068;8.658;2023-05-01T00:20:19;99848.88;;;19.94;40.95
8637;BME280;4356;49.068;8.658;2023-05-01T00:22:45;99851.59;;;19.94;40.71
8637;BME280;4356;49.068;8.658;2023-05-01T00:25:11;99851.81;;;19.92;40.83
8637;BME280;4356;49.068;8.658;2023-05-01T00:27:37;99841.97;;;19.91;40.90
8637;BME280;4356;49.068;8.658;2023-05-01T00:30:03;99843.03;;;19.90;40.76
8637;BME280;4356;49.068;8.658;2023-05-01T00:32:29;99843.66;;;19.92;40.94
8637;BME280;4356;49.068;8.658;2023-05-01T00:34:55;99834.50;;;19.87;40.90
8637;BME280;4356;49.068;8.658;2023-05-01T00:37:22;99811.34;;;19.78;40.94
8637;BME280;4356;49.068;8.658;2023-05-01T00:39:48;99806.81;;;19.72;40.81
8637;BME280;4356;49.068;8.658;2023-05-01T00:42:14;99827.97;;;19.88;40.63
8637;BME280;4356;49.068;8.658;2023-05-01T00:44:39;99827.00;;;19.82;40.91
8637;BME280;4356;49.068;8.658;2023-05-01T00:47:05;99824.63;;;19.86;40.85
8637;BME280;4356;49.068;8.658;2023-05-01T00:49:31;99819.41;;;19.84;41.04
8637;BME280;4356;49.068;8.658;2023-05-01T00:51:56;99824.50;;;19.81;40.81
8637;BME280;4356;49.068;8.658;2023-05-01T00:54:23;99831.66;;;19.82;40.86
8637;BME280;4356;49.068;8.658;2023-05-01T00:56:50;99820.50;;;19.83;40.80
8637;BME280;4356;49.068;8.658;2023-05-01T00:59:16;99817.16;;;19.81;40.86
8637;BME280;4356;49.068;8.658;2023-05-01T01:01:42;99812.75;;;19.80;40.97
8637;BME280;4356;49.068;8.658;2023-05-01T01:04:08;99820.38;;;19.78;41.13
8637;BME280;4356;49.068;8.658;2023-05-01T01:13:07;99812.41;;;19.77;41.04
8637;BME280;4356;49.068;8.658;2023-05-01T01:15:17;99802.19;;;19.72;41.00
8637;BME280;4356;49.068;8.658;2023-05-01T01:21:18;99810.16;;;19.74;40.98
8637;BME280;4356;49.068;8.658;2023-05-01T01:23:59;99796.50;;;19.74;41.12
8637;BME280;4356;49.068;8.658;2023-05-01T01:34:54;99784.03;;;19.66;41.04
8637;BME280;4356;49.068;8.658;2023-05-01T01:37:29;99787.00;;;19.65;41.06
8637;BME280;4356;49.068;8.658;2023-05-01T01:40:04;99781.19;;;19.61;41.12
8637;BME280;4356;49.068;8.658;2023-05-01T01:42:41;99794.94;;;19.66;41.19
8637;BME280;4356;49.068;8.658;2023-05-01T01:45:14;99791.84;;;19.63;41.00
8637;BME280;4356;49.068;8.658;2023-05-01T01:47:42;99774.53;;;19.57;41.21
8637;BME280;4356;49.068;8.658;2023-05-01T01:50:10;99774.28;;;19.59;41.26
8637;BME280;4356;49.068;8.658;2023-05-01T01:52:39;99784.97;;;19.60;40.79
8637;BME280;4356;49.068;8.658;2023-05-01T01:55:10;99785.56;;;19.62;41.12
8637;BME280;4356;49.068;8.658;2023-05-01T01:57:37;99781.66;;;19.58;41.25
8637;BME280;4356;49.068;8.658;2023-05-01T02:00:08;99783.31;;;19.59;40.96
8637;BME280;4356;49.068;8.658;2023-05-01T02:02:37;99784.13;;;19.60;41.15
8637;BME280;4356;49.068;8.658;2023-05-01T02:05:06;99790.44;;;19.60;41.17
8637;BME280;4356;49.068;8.658;2023-05-01T02:07:42;99786.03;;;19.59;41.20
8637;BME280;4356;49.068;8.658;2023-05-01T02:10:11;99789.00;;;19.58;41.07
8637;BME280;4356;49.068;8.658;2023-05-01T02:12:39;99780.81;;;19.58;41.10
8637;BME280;4356;49.068;8.658;2023-05-01T02:15:05;99781.06;;;19.56;41.29
8637;BME280;4356;49.068;8.658;2023-05-01T02:17:34;99758.97;;;19.46;41.25
8637;BME280;4356;49.068;8.658;2023-05-01T02:20:04;99769.41;;;19.49;41.27
8637;BME280;4356;49.068;8.658;2023-05-01T02:22:31;99781.28;;;19.55;40.94
8637;BME280;4356;49.068;8.658;2023-05-01T02:24:59;99773.31;;;19.53;41.37
8637;BME280;4356;49.068;8.658;2023-05-01T02:27:30;99773.31;;;19.53;41.01
8637;BME280;4356;49.068;8.658;2023-05-01T02:29:56;99757.06;;;19.46;41.08
8637;BME280;4356;49.068;8.658;2023-05-01T02:32:22;99766.44;;;19.51;41.48
8637;BME280;4356;49.068;8.658;2023-05-01T02:34:48;99770.03;;;19.51;41.02
8637;BME280;4356;49.068;8.658;2023-05-01T02:37:14;99736.06;;;19.35;41.22
8637;BME280;4356;49.068;8.658;2023-05-01T02:39:40;99738.09;;;19.40;41.08
8637;BME280;4356;49.068;8.658;2023-05-01T02:42:07;99738.69;;;19.42;41.25
8637;BME280;4356;49.068;8.658;2023-05-01T02:44:44;99742.41;;;19.48;41.14
8637;BME280;4356;49.068;8.658;2023-05-01T02:47:15;99752.47;;;19.47;41.21
8637;BME280;4356;49.068;8.658;2023-05-01T02:49:43;99731.56;;;19.41;41.22
8637;BME280;4356;49.068;8.658;2023-05-01T02:52:11;99745.13;;;19.48;41.20
8637;BME280;4356;49.068;8.658;2023-05-01T02:54:37;99723.28;;;19.36;41.27
8637;BME280;4356;49.068;8.658;2023-05-01T02:57:03;99746.16;;;19.46;40.97
8637;BME280;4356;49.068;8.658;2023-05-01T02:59:30;99733.25;;;19.42;41.09
8637;BME280;4356;49.068;8.658;2023-05-01T03:01:55;99741.56;;;19.47;41.21
8637;BME280;4356;49.068;8.658;2023-05-01T03:04:21;99735.28;;;19.46;41.03
8637;BME280;4356;49.068;8.658;2023-05-01T03:06:46;99706.59;;;19.26;41.07
8637;BME280;4356;49.068;8.658;2023-05-01T03:09:12;99709.53;;;19.31;41.28
8637;BME280;4356;49.068;8.658;2023-05-01T03:11:38;99725.66;;;19.44;40.98
8637;BME280;4356;49.068;8.658;2023-05-01T03:14:03;99732.78;;;19.45;41.14
8637;BME280;4356;49.068;8.658;2023-05-01T03:16:29;99723.88;;;19.38;41.15
8637;BME280;4356;49.068;8.658;2023-05-01T03:18:54;99720.53;;;19.36;41.10
8637;BME280;4356;49.068;8.658;2023-05-01T03:21:20;99729.44;;;19.43;41.21
8637;BME280;4356;49.068;8.658;2023-05-01T03:23:48;99720.31;;;19.37;41.32
8637;BME280;4356;49.068;8.658;2023-05-01T03:26:14;99728.00;;;19.40;41.05
8637;BME280;4356;49.068;8.658;2023-05-01T03:28:40;99725.53;;;19.39;41.30
8637;BME280;4356;49.068;8.658;2023-05-01T03:31:05;99722.19;;;19.37;41.00
8637;BME280;4356;49.068;8.658;2023-05-01T03:33:31;99714.34;;;19.29;41.28
8637;BME280;4356;49.068;8.658;2023-05-01T03:36:03;99730.97;;;19.39;41.06
8637;BME280;4356;49.068;8.658;2023-05-01T03:38:30;99720.53;;;19.36;41.23
8637;BME280;4356;49.068;8.658;2023-05-01T03:40:56;99718.28;;;19.33;41.21
8637;BME280;4356;49.068;8.658;2023-05-01T03:43:22;99722.00;;;19.38;41.31
8637;BME280;4356;49.068;8.658;2023-05-01T03:45:48;99715.56;;;19.33;41.30
8637;BME280;4356;49.068;8.658;2023-05-01T03:48:15;99708.88;;;19.29;41.31
8637;BME280;4356;49.068;8.658;2023-05-01T03:50:40;99727.03;;;19.35;41.36
8637;BME280;4356;49.068;8.658;2023-05-01T03:53:06;99700.56;;;19.24;41.21
8637;BME280;4356;49.068;8.658;2023-05-01T03:55:32;99705.78;;;19.25;41.23
8637;BME280;4356;49.068;8.658;2023-05-01T03:57:58;99718.88;;;19.35;41.26
8637;BME280;4356;49.068;8.658;2023-05-01T04:00:23;99719.09;;;19.33;41.10
8637;BME280;4356;49.068;8.658;2023-05-01T04:02:49;99720.78;;;19.34;41.27
8637;BME280;4356;49.068;8.658;2023-05-01T04:05:15;99712.00;;;19.32;41.29
8637;BME280;4356;49.068;8.658;2023-05-01T04:07:40;99706.59;;;19.26;41.27
8637;BME280;4356;49.068;8.658;2023-05-01T04:10:06;99694.97;;;19.19;41.10
8637;BME280;4356;49.068;8.658;2023-05-01T04:12:34;99707.41;;;19.33;41.16
8637;BME280;4356;49.068;8.658;2023-05-01T04:15:00;99710.53;;;19.30;41.27
8637;BME280;4356;49.068;8.658;2023-05-01T04:17:26;99710.31;;;19.31;41.21
8637;BME280;4356;49.068;8.658;2023-05-01T04:19:52;99714.09;;;19.30;41.31
8637;BME280;4356;49.068;8.658;2023-05-01T04:22:20;99708.88;;;19.29;41.20
8637;BME280;4356;49.068;8.658;2023-05-01T04:24:46;99707.69;;;19.25;41.28
8637;BME280;4356;49.068;8.658;2023-05-01T04:27:11;99696.88;;;19.18;41.16
8637;BME280;4356;49.068;8.658;2023-05-01T04:29:37;99691.44;;;19.18;41.10
8637;BME280;4356;49.068;8.658;2023-05-01T04:32:02;99711.00;;;19.27;41.16
8637;BME280;4356;49.068;8.658;2023-05-01T04:34:28;99707.69;;;19.25;41.34
8637;BME280;4356;49.068;8.658;2023-05-01T04:36:54;99698.28;;;19.21;41.27
8637;BME280;4356;49.068;8.658;2023-05-01T04:39:22;99704.13;;;19.24;41.24
8637;BME280;4356;49.068;8.658;2023-05-01T04:41:48;99690.66;;;19.11;41.18
8637;BME280;4356;49.068;8.658;2023-05-01T04:44:13;99682.97;;;19.08;41.33
8637;BME280;4356;49.068;8.658;2023-05-01T04:46:39;99690.66;;;19.11;41.25
8637;BME280;4356;49.068;8.658;2023-05-01T04:49:05;99703.13;;;19.19;41.35
8637;BME280;4356;49.068;8.658;2023-05-01T04:51:30;99693.19;;;19.13;41.27
8637;BME280;4356;49.068;8.658;2023-05-01T04:53:56;99707.06;;;19.23;41.49
8637;BME280;4356;49.068;8.658;2023-05-01T04:56:22;99702.47;;;19.23;41.42
8637;BME280;4356;49.068;8.658;2023-05-01T04:58:47;99711.47;;;19.24;41.32
8637;BME280;4356;49.068;8.658;2023-05-01T05:01:13;99686.91;;;19.12;41.17
8637;BME280;4356;49.068;8.658;2023-05-01T05:03:41;99710.88;;;19.22;41.38
8637;BME280;4356;49.068;8.658;2023-05-01T05:06:07;99707.91;;;19.23;41.45
8637;BME280;4356;49.068;8.658;2023-05-01T05:08:32;99702.47;;;19.23;41.15
8637;BME280;4356;49.068;8.658;2023-05-01T05:10:59;99705.78;;;19.25;41.32
8637;BME280;4356;49.068;8.658;2023-05-01T05:13:25;99708.28;;;19.27;41.05
8637;BME280;4356;49.068;8.658;2023-05-01T05:15:51;99694.53;;;19.22;41.22
8637;BME280;4356;49.068;8.658;2023-05-01T05:18:17;99718.94;;;19.28;41.09
8637;BME280;4356;49.068;8.658;2023-05-01T05:20:42;99700.19;;;19.20;41.03
8637;BME280;4356;49.068;8.658;2023-05-01T05:23:08;99706.03;;;19.24;40.97
8637;BME280;4356;49.068;8.658;2023-05-01T05:25:34;99712.00;;;19.32;40.99
8637;BME280;4356;49.068;8.658;2023-05-01T05:28:00;99714.97;;;19.31;41.09
8637;BME280;4356;49.068;8.658;2023-05-01T05:30:28;99694.28;;;19.23;40.99
8637;BME280;4356;49.068;8.658;2023-05-01T05:32:54;99692.25;;;19.19;41.23
8637;BME280;4356;49.068;8.658;2023-05-01T05:35:19;99720.53;;;19.36;41.04
8637;BME280;4356;49.068;8.658;2023-05-01T05:37:45;99720.78;;;19.34;40.94
8637;BME280;4356;49.068;8.658;2023-05-01T05:40:11;99716.97;;;19.35;40.94
8637;BME280;4356;49.068;8.658;2023-05-01T05:42:37;99722.78;;;19.39;41.04
8637;BME280;4356;49.068;8.658;2023-05-01T05:45:05;99710.69;;;19.35;41.04
8637;BME280;4356;49.068;8.658;2023-05-01T05:47:31;99696.31;;;19.28;40.81
8637;BME280;4356;49.068;8.658;2023-05-01T05:49:57;99716.53;;;19.38;40.81
8637;BME280;4356;49.068;8.658;2023-05-01T05:52:22;99719.38;;;19.43;40.75
8637;BME280;4356;49.068;8.658;2023-05-01T05:54:48;99705.63;;;19.38;40.62
8637;BME280;4356;49.068;8.658;2023-05-01T05:57:14;99684.00;;;19.25;40.73
8637;BME280;4356;49.068;8.658;2023-05-01T05:59:42;99684.81;;;19.26;40.79
8637;BME280;4356;49.068;8.658;2023-05-01T06:02:09;99714.31;;;19.47;40.85
8637;BME280;4356;49.068;8.658;2023-05-01T06:04:34;99698.88;;;19.41;40.78
8637;BME280;4356;49.068;8.658;2023-05-01T06:07:00;99720.97;;;19.51;40.72
8637;BME280;4356;49.068;8.658;2023-05-01T06:09:25;99712.84;;;19.44;40.71
8637;BME280;4356;49.068;8.658;2023-05-01T06:11:51;99695.53;;;19.39;40.67
8637;BME280;4356;49.068;8.658;2023-05-01T06:14:17;99697.22;;;19.40;40.83
8637;BME280;4356;49.068;8.658;2023-05-01T06:16:42;99700.31;;;19.43;40.94
8637;BME280;4356;49.068;8.658;2023-05-01T06:19:08;99704.44;;;19.46;40.63
8637;BME280;4356;49.068;8.658;2023-05-01T06:21:36;99717.16;;;19.52;40.71
8637;BME280;4356;49.068;8.658;2023-05-01T06:24:01;99703.41;;;19.47;40.72
8637;BME280;4356;49.068;8.658;2023-05-01T06:26:27;99699.84;;;19.46;40.61
8637;BME280;4356;49.068;8.658;2023-05-01T06:28:53;99712.31;;;19.54;40.62
8637;BME280;4356;49.068;8.658;2023-05-01T06:31:19;99719.75;;;19.59;40.47
8637;BME280;4356;49.068;8.658;2023-05-01T06:33:45;99718.13;;;19.58;40.52
8637;BME280;4356;49.068;8.658;2023-05-01T06:36:10;99720.38;;;19.61;40.40
8637;BME280;4356;49.068;8.658;2023-05-01T06:38:36;99720.13;;;19.62;40.60
8637;BME280;4356;49.068;8.658;2023-05-01T06:41:05;99723.69;;;19.63;40.58
8637;BME280;4356;49.068;8.658;2023-05-01T06:43:31;99722.41;;;19.65;40.60
8637;BME280;4356;49.068;8.658;2023-05-01T06:45:57;99728.47;;;19.67;40.67
8637;BME280;4356;49.068;8.658;2023-05-01T06:48:25;99714.31;;;19.59;40.28
8637;BME280;4356;49.068;8.658;2023-05-01T06:50:51;99716.84;;;19.60;40.31
8637;BME280;4356;49.068;8.658;2023-05-01T06:53:16;99729.88;;;19.70;40.49
8637;BME280;4356;49.068;8.658;2023-05-01T06:55:42;99727.63;;;19.67;40.36
8637;BME280;4356;49.068;8.658;2023-05-01T06:58:08;99703.22;;;19.60;40.43
8637;BME280;4356;49.068;8.658;2023-05-01T07:00:33;99726.34;;;19.69;39.87
8637;BME280;4356;49.068;8.658;2023-05-01T07:02:59;99732.75;;;19.75;40.51
8637;BME280;4356;49.068;8.658;2023-05-01T07:05:24;99737.13;;;19.76;40.45
8637;BME280;4356;49.068;8.658;2023-05-01T07:07:51;99731.44;;;19.77;40.48
8637;BME280;4356;49.068;8.658;2023-05-01T07:10:16;99738.56;;;19.78;40.33
8637;BME280;4356;49.068;8.658;2023-05-01T07:12:42;99726.81;;;19.78;40.38
8637;BME280;4356;49.068;8.658;2023-05-01T07:15:08;99726.59;;;19.79;40.17
8637;BME280;4356;49.068;8.658;2023-05-01T07:17:34;99727.41;;;19.80;40.25
8637;BME280;4356;49.068;8.658;2023-05-01T07:20:02;99728.81;;;19.82;40.28
8637;BME280;4356;49.068;8.658;2023-05-01T07:22:29;99722.31;;;19.83;40.21
8637;BME280;4356;49.068;8.658;2023-05-01T07:24:55;99707.00;;;19.71;40.23
8637;BME280;4356;49.068;8.658;2023-05-01T07:27:20;99725.41;;;19.87;40.13
8637;BME280;4356;49.068;8.658;2023-05-01T07:29:46;99723.53;;;19.87;40.26
8637;BME280;4356;49.068;8.658;2023-05-01T07:32:11;99727.66;;;19.90;40.13
8637;BME280;4356;49.068;8.658;2023-05-01T07:34:37;99726.81;;;19.89;40.13
8637;BME280;4356;49.068;8.658;2023-05-01T07:37:02;99719.72;;;19.88;40.04
8637;BME280;4356;49.068;8.658;2023-05-01T07:39:29;99716.75;;;19.90;39.95
8637;BME280;4356;49.068;8.658;2023-05-01T07:41:58;99714.84;;;19.90;40.15
8637;BME280;4356;49.068;8.658;2023-05-01T07:44:24;99699.44;;;19.84;40.13
8637;BME280;4356;49.068;8.658;2023-05-01T07:46:49;99720.19;;;19.97;40.10
8637;BME280;4356;49.068;8.658;2023-05-01T07:49:15;99722.72;;;19.98;39.99
8637;BME280;4356;49.068;8.658;2023-05-01T07:51:40;99725.19;;;20.00;40.43
8637;BME280;4356;49.068;8.658;2023-05-01T07:54:07;99718.41;;;20.02;40.05
8637;BME280;4356;49.068;8.658;2023-05-01T07:56:32;99700.97;;;19.92;39.94
8637;BME280;4356;49.068;8.658;2023-05-01T07:58:58;99717.13;;;20.05;40.17
8637;BME280;4356;49.068;8.658;2023-05-01T08:01:24;99711.56;;;20.00;39.88
8637;BME280;4356;49.068;8.658;2023-05-01T08:03:49;99711.44;;;20.06;39.97
8637;BME280;4356;49.068;8.658;2023-05-01T08:06:15;99709.31;;;20.08;39.84
8637;BME280;4356;49.068;8.658;2023-05-01T08:08:40;99708.22;;;20.09;39.82
8637;BME280;4356;49.068;8.658;2023-05-01T08:11:08;99698.97;;;19.99;39.99
8637;BME280;4356;49.068;8.658;2023-05-01T08:13:34;99723.66;;;20.15;39.80
8637;BME280;4356;49.068;8.658;2023-05-01T08:16:03;99724.50;;;20.16;39.83
8637;BME280;4356;49.068;8.658;2023-05-01T08:18:29;99719.88;;;20.16;39.93
8637;BME280;4356;49.068;8.658;2023-05-01T08:20:56;99717.16;;;20.16;39.72
8637;BME280;4356;49.068;8.658;2023-05-01T08:23:21;99711.31;;;20.13;39.77
8637;BME280;4356;49.068;8.658;2023-05-01T08:25:50;99720.47;;;20.18;39.72
8637;BME280;4356;49.068;8.658;2023-05-01T08:28:17;99701.22;;;20.13;39.70
8637;BME280;4356;49.068;8.658;2023-05-01T08:30:45;99722.25;;;20.24;39.74
8637;BME280;4356;49.068;8.658;2023-05-01T08:33:10;99726.06;;;20.23;39.70
8637;BME280;4356;49.068;8.658;2023-05-01T08:35:36;99725.00;;;20.24;39.72
8637;BME280;4356;49.068;8.658;2023-05-01T08:38:02;99717.63;;;20.25;39.74
8637;BME280;4356;49.068;8.658;2023-05-01T08:40:30;99704.56;;;20.15;39.71
8637;BME280;4356;49.068;8.658;2023-05-01T08:42:59;99720.25;;;20.31;39.73
8637;BME280;4356;49.068;8.658;2023-05-01T08:45:26;99706.13;;;20.23;39.91
8637;BME280;4356;49.068;8.658;2023-05-01T08:47:57;99719.53;;;20.36;39.49
8637;BME280;4356;49.068;8.658;2023-05-01T08:50:26;99712.66;;;20.33;39.68
8637;BME280;4356;49.068;8.658;2023-05-01T08:52:56;99712.41;;;20.35;39.67
8637;BME280;4356;49.068;8.658;2023-05-01T08:55:24;99724.88;;;20.42;39.53
8637;BME280;4356;49.068;8.658;2023-05-01T08:57:51;99695.31;;;20.28;39.43
8637;BME280;4356;49.068;8.658;2023-05-01T09:00:18;99703.63;;;20.33;39.60
8637;BME280;4356;49.068;8.658;2023-05-01T09:02:48;99718.47;;;20.48;39.54
8637;BME280;4356;49.068;8.658;2023-05-01T09:05:15;99720.94;;;20.50;39.47
8637;BME280;4356;49.068;8.658;2023-05-01T09:07:43;99713.00;;;20.48;39.59
8637;BME280;4356;49.068;8.658;2023-05-01T09:10:15;99696.03;;;20.46;39.42
8637;BME280;4356;49.068;8.658;2023-05-01T09:12:44;99692.47;;;20.46;39.36
8637;BME280;4356;49.068;8.658;2023-05-01T09:15:11;99704.66;;;20.55;39.33
8637;BME280;4356;49.068;8.658;2023-05-01T09:17:37;99716.88;;;20.64;39.46
8637;BME280;4356;49.068;8.658;2023-05-01T09:20:03;99702.97;;;20.66;39.29
8637;BME280;4356;49.068;8.658;2023-05-01T09:22:34;99702.75;;;20.67;39.27
8637;BME280;4356;49.068;8.658;2023-05-01T09:25:00;99703.91;;;20.71;39.20
8637;BME280;4356;49.068;8.658;2023-05-01T09:27:26;99709.50;;;20.76;38.89
8637;BME280;4356;49.068;8.658;2023-05-01T09:29:52;99718.50;;;20.77;39.21
8637;BME280;4356;49.068;8.658;2023-05-01T09:32:22;99716.97;;;20.81;39.17
8637;BME280;4356;49.068;8.658;2023-05-01T09:35:11;99720.53;;;20.81;39.08
8637;BME280;4356;49.068;8.658;2023-05-01T09:37:38;99727.19;;;20.85;39.05
8637;BME280;4356;49.068;8.658;2023-05-01T09:40:08;99708.78;;;20.81;38.98
8637;BME280;4356;49.068;8.658;2023-05-01T09:42:51;99721.22;;;20.88;39.11
8637;BME280;4356;49.068;8.658;2023-05-01T09:45:17;99721.81;;;20.90;38.95
8637;BME280;4356;49.068;8.658;2023-05-01T09:47:46;99708.88;;;20.86;38.89
8637;BME280;4356;49.068;8.658;2023-05-01T09:50:32;99711.50;;;20.92;38.96
8637;BME280;4356;49.068;8.658;2023-05-01T09:53:03;99721.41;;;20.98;38.83
8637;BME280;4356;49.068;8.658;2023-05-01T09:55:30;99701.84;;;20.90;39.02
8637;BME280;4356;49.068;8.658;2023-05-01T09:57:56;99718.59;;;21.05;38.77
8637;BME280;4356;49.068;8.658;2023-05-01T10:00:23;99715.28;;;21.03;38.81
8637;BME280;4356;49.068;8.658;2023-05-01T10:02:49;99724.16;;;21.10;38.79
8637;BME280;4356;49.068;8.658;2023-05-01T10:05:16;99725.59;;;21.12;38.64
8637;BME280;4356;49.068;8.658;2023-05-01T10:07:56;99724.75;;;21.12;38.68
8637;BME280;4356;49.068;8.658;2023-05-01T10:10:23;99727.56;;;21.17;38.86
8637;BME280;4356;49.068;8.658;2023-05-01T10:12:48;99722.44;;;21.20;38.81
8637;BME280;4356;49.068;8.658;2023-05-01T10:15:15;99729.09;;;21.24;38.59
8637;BME280;4356;49.068;8.658;2023-05-01T10:17:41;99727.78;;;21.27;38.50
8637;BME280;4356;49.068;8.658;2023-05-01T10:20:11;99728.13;;;21.30;38.39
8637;BME280;4356;49.068;8.658;2023-05-01T10:22:38;99724.31;;;21.31;38.69
8637;BME280;4356;49.068;8.658;2023-05-01T10:25:08;99718.00;;;21.31;38.48
8637;BME280;4356;49.068;8.658;2023-05-01T10:27:37;99721.66;;;21.36;38.65
8637;BME280;4356;49.068;8.658;2023-05-01T10:30:04;99719.75;;;21.37;38.62
8637;BME280;4356;49.068;8.658;2023-05-01T10:32:30;99723.94;;;21.39;38.52
8637;BME280;4356;49.068;8.658;2023-05-01T10:35:03;99718.81;;;21.43;38.76
8637;BME280;4356;49.068;8.658;2023-05-01T10:37:34;99718.28;;;21.46;38.65
8637;BME280;4356;49.068;8.658;2023-05-01T10:43:23;99722.22;;;21.50;38.51
8637;BME280;4356;49.068;8.658;2023-05-01T10:46:39;99718.38;;;21.51;38.60
8637;BME280;4356;49.068;8.658;2023-05-01T10:53:43;99717.91;;;21.54;38.60
8637;BME280;4356;49.068;8.658;2023-05-01T10:58:53;99718.81;;;21.60;38.51
8637;BME280;4356;49.068;8.658;2023-05-01T11:01:36;99722.13;;;21.62;38.62
8637;BME280;4356;49.068;8.658;2023-05-01T11:04:07;99719.16;;;21.63;38.58
8637;BME280;4356;49.068;8.658;2023-05-01T11:13:00;99715.16;;;21.71;38.31
8637;BME280;4356;49.068;8.658;2023-05-01T11:15:02;99711.13;;;21.73;38.40
8637;BME280;4356;49.068;8.658;2023-05-01T11:20:10;99708.72;;;21.77;38.29
8637;BME280;4356;49.068;8.658;2023-05-01T11:22:37;99704.72;;;21.79;38.28
8637;BME280;4356;49.068;8.658;2023-05-01T11:25:20;99707.19;;;21.81;38.38
8637;BME280;4356;49.068;8.658;2023-05-01T11:27:52;99712.16;;;21.84;38.25
8637;BME280;4356;49.068;8.658;2023-05-01T11:30:18;99697.63;;;21.83;38.24
8637;BME280;4356;49.068;8.658;2023-05-01T11:32:45;99705.38;;;21.86;38.23
8637;BME280;4356;49.068;8.658;2023-05-01T11:35:21;99696.06;;;21.87;38.20
8637;BME280;4356;49.068;8.658;2023-05-01T11:37:48;99695.81;;;21.89;38.50
8637;BME280;4356;49.068;8.658;2023-05-01T11:42:50;99696.41;;;21.91;38.18
8637;BME280;4356;49.068;8.658;2023-05-01T11:45:17;99697.22;;;21.91;38.08
8637;BME280;4356;49.068;8.658;2023-05-01T11:47:42;99696.16;;;21.92;38.46
8637;BME280;4356;49.068;8.658;2023-05-01T11:50:09;99678.59;;;21.88;38.16
8637;BME280;4356;49.068;8.658;2023-05-01T11:52:45;99690.44;;;21.94;38.11
8637;BME280;4356;49.068;8.658;2023-05-01T11:55:14;99687.94;;;21.92;38.33
8637;BME280;4356;49.068;8.658;2023-05-01T11:57:59;99689.94;;;21.97;38.31
8637;BME280;4356;49.068;8.658;2023-05-01T12:00:47;99693.25;;;21.99;38.42
8637;BME280;4356;49.068;8.658;2023-05-01T12:03:14;99682.31;;;21.99;38.04
8637;BME280;4356;49.068;8.658;2023-05-01T12:05:42;99684.78;;;22.00;38.09
8637;BME280;4356;49.068;8.658;2023-05-01T12:08:09;99681.81;;;22.02;38.20
8637;BME280;4356;49.068;8.658;2023-05-01T12:10:37;99679.31;;;22.00;38.18
8637;BME280;4356;49.068;8.658;2023-05-01T12:13:04;99679.31;;;22.00;38.14
8637;BME280;4356;49.068;8.658;2023-05-01T12:15:33;99671.88;;;21.96;37.97
8637;BME280;4356;49.068;8.658;2023-05-01T12:17:59;99680.97;;;22.01;38.28
8637;BME280;4356;49.068;8.658;2023-05-01T12:20:48;99684.59;;;22.07;38.15
8637;BME280;4356;49.068;8.658;2023-05-01T12:23:39;99684.88;;;22.05;38.19
8637;BME280;4356;49.068;8.658;2023-05-01T12:26:17;99675.84;;;22.05;38.01
8637;BME280;4356;49.068;8.658;2023-05-01T12:29:00;99677.50;;;22.06;38.25
8637;BME280;4356;49.068;8.658;2023-05-01T12:31:28;99671.19;;;22.05;38.14
8637;BME280;4356;49.068;8.658;2023-05-01T12:33:58;99677.50;;;22.06;38.20
8637;BME280;4356;49.068;8.658;2023-05-01T12:36:28;99678.91;;;22.08;38.25
8637;BME280;4356;49.068;8.658;2023-05-01T12:39:12;99681.38;;;22.10;38.22
8637;BME280;4356;49.068;8.658;2023-05-01T12:41:42;99674.50;;;22.07;38.29
8637;BME280;4356;49.068;8.658;2023-05-01T12:46:59;99674.00;;;22.10;38.20
8637;BME280;4356;49.068;8.658;2023-05-01T12:49:25;99676.50;;;22.12;38.20
8637;BME280;4356;49.068;8.658;2023-05-01T12:51:56;99671.84;;;22.12;38.28
8637;BME280;4356;49.068;8.658;2023-05-01T12:57:09;99669.09;;;22.12;38.22
8637;BME280;4356;49.068;8.658;2023-05-01T12:59:36;99671.84;;;22.12;38.19
8637;BME280;4356;49.068;8.658;2023-05-01T13:02:05;99670.50;;;22.15;38.33
8637;BME280;4356;49.068;8.658;2023-05-01T13:04:31;99672.41;;;22.14;38.07
8637;BME280;4356;49.068;8.658;2023-05-01T13:06:57;99671.03;;;22.12;38.07
8637;BME280;4356;49.068;8.658;2023-05-01T13:09:25;99665.28;;;22.13;38.01
8637;BME280;4356;49.068;8.658;2023-05-01T13:14:28;99662.56;;;22.13;38.24
8637;BME280;4356;49.068;8.658;2023-05-01T13:16:54;99662.56;;;22.13;38.16
8637;BME280;4356;49.068;8.658;2023-05-01T13:19:27;99652.44;;;22.14;38.11
8637;BME280;4356;49.068;8.658;2023-05-01T13:21:54;99656.81;;;22.15;38.13
8637;BME280;4356;49.068;8.658;2023-05-01T13:24:20;99659.56;;;22.15;37.91
8637;BME280;4356;49.068;8.658;2023-05-01T13:26:46;99658.47;;;22.16;38.03
8637;BME280;4356;49.068;8.658;2023-05-01T13:29:14;99626.50;;;22.00;38.12
8637;BME280;4356;49.068;8.658;2023-05-01T13:31:44;99658.25;;;22.17;38.14
8637;BME280;4356;49.068;8.658;2023-05-01T13:34:10;99658.25;;;22.17;38.08
8637;BME280;4356;49.068;8.658;2023-05-01T13:36:36;99655.19;;;22.14;38.18
8637;BME280;4356;49.068;8.658;2023-05-01T13:39:02;99653.00;;;22.16;38.06
8637;BME280;4356;49.068;8.658;2023-05-01T13:41:28;99642.50;;;22.08;38.38
8637;BME280;4356;49.068;8.658;2023-05-01T13:43:55;99655.50;;;22.17;38.23
8637;BME280;4356;49.068;8.658;2023-05-01T13:46:23;99642.25;;;22.09;38.29
8637;BME280;4356;49.068;8.658;2023-05-01T13:48:49;99641.16;;;22.10;38.15
8637;BME280;4356;49.068;8.658;2023-05-01T13:51:25;99637.59;;;22.10;38.10
8637;BME280;4356;49.068;8.658;2023-05-01T13:53:51;99651.94;;;22.17;38.30
8637;BME280;4356;49.068;8.658;2023-05-01T13:56:19;99649.78;;;22.19;38.25
8637;BME280;4356;49.068;8.658;2023-05-01T13:58:45;99635.50;;;22.17;38.09
8637;BME280;4356;49.068;8.658;2023-05-01T14:01:19;99634.16;;;22.19;38.15
8637;BME280;4356;49.068;8.658;2023-05-01T14:03:45;99635.00;;;22.20;38.14
8637;BME280;4356;49.068;8.658;2023-05-01T14:06:18;99630.88;;;22.17;38.16
8637;BME280;4356;49.068;8.658;2023-05-01T14:08:45;99622.41;;;22.19;38.23
8637;BME280;4356;49.068;8.658;2023-05-01T14:11:12;99620.72;;;22.18;38.01
8637;BME280;4356;49.068;8.658;2023-05-01T14:13:46;99621.81;;;22.17;38.16